Detall de PIREP

Printer-friendly versionPDF version

[2013/09/29 08:02:00]
Flight IATA:CT3214
Pilot Number:012
Company ICAO:CAT
Aircraft Type:B752/E
PAX:180
Aircraft Registration:PAX
Departing Airport: LEPA
Destination Airport: EKCH
Alternate Airport:EDDH
Online: VATSIM
Route:MEROS UN853 MOBLO UZ662 LAMUR UZ67 KORED UN871 DITON T163 ZUE T125 ROMIR UN851 MAKEL N851 GESKA T57 MONAK
Flight Level:F360
No Slew and time accel
No pause
Crash detect
Detect pilot in Cockpit between each 30 and 45 minutes
08:02 Zero fuel Weight: 171275 Lbs, Fuel Weight: 29636 Lbs
08:02 VATSIM:LEPA 290730Z 26015KT 9999 FEW020TCU SCT038 25/17 Q1007 NOSIG
08:02 VATSIM:EKCH 290750Z 08009KT CAVOK 10/07 Q1023 NOSIG
08:03 VOICE CATALONIAN
08:08 Parking Brakes off
08:12 Take-off
08:12 Take off Weight: 199405 Lbs
08:12 Wind: 259º @ 015 Knots Heading: 240º
08:12 POS N39º 33´ 15´´ E002º 43´ 31´´
08:12 Gear Up: 204 Knots
08:12 Flaps:2 at 205 Knots
08:13 Flaps:1 at 214 Knots
08:13 Flaps:0 at 215 Knots
08:25 TOC
08:25 Fuel Weight: 24382 Lb
08:27 Wind:283º@061 Knots Heading: 021º Ground Speed: 483 Knots Altitude 35807 ft
08:42 Wind:227º@044 Knots Heading: 032º Ground Speed: 497 Knots Altitude 35728 ft
08:57 Wind:199º@053 Knots Heading: 028º Ground Speed: 507 Knots Altitude 35751 ft
09:12 Wind:201º@044 Knots Heading: 026º Ground Speed: 504 Knots Altitude 35793 ft
09:27 Wind:211º@053 Knots Heading: 050º Ground Speed: 509 Knots Altitude 35780 ft
09:42 Wind:224º@030 Knots Heading: 003º Ground Speed: 483 Knots Altitude 35889 ft
09:57 Wind:305º@010 Knots Heading: 016º Ground Speed: 455 Knots Altitude 35994 ft
10:12 Wind:323º@027 Knots Heading: 017º Ground Speed: 442 Knots Altitude 36141 ft
10:16 TOD
10:16 Fuel Weight: 10993 Lb
10:27 Wind:013º@007 Knots Heading: 033º Ground Speed: 341 Knots Altitude 13891 ft
10:38 Flaps:1 at 202 Knots
10:38 Flaps:2 at 200 Knots
10:39 Flaps:3 at 169 Knots
10:39 Gear Down: 167 Knots
10:39 Flaps:4 at 152 Knots
10:39 Flaps:5 at 150 Knots
10:39 Flaps:6 at 144 Knots
10:42 Wind:077º@010 Knots Heading: 043º Ground Speed: 125 Knots Altitude 997 ft
10:43 TouchDown:Rate -189 ft/min Speed: 126 Knots
10:43 VATSIM:EKCH 291020Z 09008KT CAVOK 13/05 Q1023 NOSIG
10:43 Land
10:43 Wind:077º@010 Knots
10:43 Heading: 039º
10:43 Flight Duration: 02:31
10:43 Landing Weight: 180264 Lbs
10:43 POS N55º 36´ 01´´ E012º 36´ 58´´
10:48 Parking brakes on
10:48 Block to Block Duration: 02:40
10:48 Final Fuel: 8653 Lbls
10:48 Spent Fuel: 20983 Lbls
10:48 Flight Length: 1118 NM
10:48 TOD Land Length: 133 NM

Exportar CSV

Powered by Drupal - Modified by Danger4k